Time;durP1;ratioP1;P1;durP2;ratioP2;P2;SDS_P1;SDS_P2;PMS_P1;PMS_P2;Temp;Humidity;BMP_temperature;BMP_pressure;BME280_temperature;BME280_humidity;BME280_pressure;Samples;Min_cycle;Max_cycle;Signal;HPM_P1;HPM_P2
2023/07/14 00:00:36;;;;;;;9.55;3.17;;;;;;;18.72;82.94;96593.47;5052426;28;20496;-73
2023/07/14 00:03:05;;;;;;;3.40;2.42;;;;;;;18.68;82.54;96589.84;5051687;28;20544;-74
2023/07/14 00:05:35;;;;;;;4.70;2.95;;;;;;;18.61;82.95;96587.72;5051747;28;20102;-73
2023/07/14 00:08:03;;;;;;;5.28;2.70;;;;;;;18.51;83.04;96600.13;5052041;28;20044;-73
2023/07/14 00:10:32;;;;;;;3.60;2.72;;;;;;;18.45;83.20;96587.81;5051741;28;20369;-73
2023/07/14 00:13:00;;;;;;;4.63;2.95;;;;;;;18.44;83.79;96591.72;5052040;28;20056;-73
2023/07/14 00:15:28;;;;;;;5.63;3.28;;;;;;;18.36;83.99;96584.47;5060823;28;20048;-73
2023/07/14 00:18:00;;;;;;;6.13;3.25;;;;;;;18.22;84.02;96586.94;5052142;28;20127;-73
2023/07/14 00:20:29;;;;;;;6.35;2.90;;;;;;;17.99;84.71;96587.63;5051725;28;20040;-73
2023/07/14 00:22:57;;;;;;;6.25;3.00;;;;;;;17.87;85.07;96585.00;5051440;28;20076;-73
2023/07/14 00:25:26;;;;;;;6.78;3.40;;;;;;;17.68;85.70;96584.94;5051388;28;20041;-73
2023/07/14 00:27:53;;;;;;;4.57;3.33;;;;;;;17.62;86.64;96589.13;5051734;28;20539;-73
2023/07/14 00:30:23;;;;;;;5.32;3.17;;;;;;;17.58;87.38;96583.50;5051540;28;20048;-73
2023/07/14 00:32:53;;;;;;;4.35;3.10;;;;;;;17.78;87.06;96583.59;5050998;28;20056;-73
2023/07/14 00:35:22;;;;;;;5.18;3.13;;;;;;;17.86;86.40;96580.66;5051117;28;20045;-73
2023/07/14 00:37:48;;;;;;;3.88;2.97;;;;;;;17.90;86.14;96573.25;5052422;28;20052;-72
2023/07/14 00:40:17;;;;;;;4.82;3.45;;;;;;;18.00;86.57;96580.94;5051549;28;20044;-73
2023/07/14 00:42:44;;;;;;;4.65;3.17;;;;;;;18.07;85.64;96577.56;5051856;28;20049;-73
2023/07/14 00:45:14;;;;;;;4.80;3.17;;;;;;;18.13;85.10;96575.34;5065745;28;20052;-73
2023/07/14 00:47:43;;;;;;;3.97;3.10;;;;;;;18.18;84.95;96573.09;5072516;28;20041;-73
2023/07/14 00:50:21;;;;;;;5.35;3.15;;;;;;;18.09;84.31;96577.22;5072024;28;20040;-74
2023/07/14 00:52:48;;;;;;;4.95;3.50;;;;;;;18.10;84.13;96571.31;5057584;28;20148;-73
2023/07/14 00:55:36;;;;;;;4.20;2.80;;;;;;;18.21;84.36;96577.06;5054881;28;20052;-73
2023/07/14 00:58:05;;;;;;;4.60;3.30;;;;;;;18.19;84.13;96574.69;5047657;28;20049;-73
2023/07/14 01:00:32;;;;;;;7.53;3.58;;;;;;;18.19;83.56;96571.13;5053951;28;20648;-73
2023/07/14 01:03:00;;;;;;;3.97;2.97;;;;;;;18.24;83.41;96559.81;5052857;28;20045;-73
2023/07/14 01:05:29;;;;;;;5.65;2.60;;;;;;;18.26;82.80;96572.06;5049784;28;20036;-73
2023/07/14 01:07:56;;;;;;;3.90;2.70;;;;;;;18.27;83.35;96570.13;5050279;28;20067;-73
2023/07/14 01:10:26;;;;;;;5.57;2.90;;;;;;;18.28;83.12;96576.44;5070325;28;20045;-73
2023/07/14 01:12:57;;;;;;;4.07;2.80;;;;;;;18.24;82.32;96571.63;5070658;28;20037;-73
2023/07/14 01:15:24;;;;;;;6.45;3.25;;;;;;;18.22;82.39;96570.41;5059864;28;20128;-73
2023/07/14 01:17:51;;;;;;;4.60;3.22;;;;;;;18.14;82.93;96571.41;5050927;28;20075;-73
2023/07/14 01:20:18;;;;;;;5.32;3.08;;;;;;;17.91;83.20;96576.84;5050386;28;20049;-73
2023/07/14 01:22:59;;;;;;;6.07;3.58;;;;;;;17.71;84.46;96570.44;5050400;28;20055;-73
2023/07/14 01:25:34;;;;;;;6.70;3.58;;;;;;;17.33;85.57;96563.69;5049776;28;20057;-73
2023/07/14 01:28:03;;;;;;;6.70;3.38;;;;;;;17.30;86.14;96560.81;5050713;28;20157;-73
2023/07/14 01:30:30;;;;;;;5.93;3.67;;;;;;;17.39;85.72;96553.19;5050394;28;20590;-73
2023/07/14 01:32:57;;;;;;;5.13;3.58;;;;;;;17.07;86.80;96575.22;5050429;28;20137;-73
2023/07/14 01:35:29;;;;;;;10.88;4.13;;;;;;;17.08;87.73;96570.50;5049884;28;20052;-73
2023/07/14 01:37:56;;;;;;;5.90;3.30;;;;;;;17.20;86.74;96573.97;5050522;28;20045;-73
2023/07/14 01:40:23;;;;;;;4.13;2.55;;;;;;;17.36;86.68;96560.19;5050023;28;20519;-73
2023/07/14 01:42:53;;;;;;;5.18;3.17;;;;;;;17.26;85.79;96560.72;5050239;28;20683;-73
2023/07/14 01:45:23;;;;;;;11.48;3.50;;;;;;;16.94;86.93;96557.97;5054995;28;20041;-73
2023/07/14 01:47:57;;;;;;;7.05;3.20;;;;;;;16.73;88.10;96554.69;5050116;28;20045;-73
2023/07/14 01:50:27;;;;;;;5.60;3.60;;;;;;;16.59;89.45;96548.75;5049421;28;20041;-73
2023/07/14 01:53:00;;;;;;;6.57;3.53;;;;;;;16.54;90.54;96547.06;5050204;28;20049;-73
2023/07/14 01:55:31;;;;;;;;;;;;;;;16.74;89.73;96550.78;5050278;28;20052;-73
2023/07/14 01:58:00;;;;;;;6.53;3.28;;;;;;;16.34;90.33;96548.91;5049731;28;19966;-73
2023/07/14 02:00:28;;;;;;;6.93;3.47;;;;;;;16.55;89.67;96556.09;5049792;28;20048;-73
2023/07/14 02:02:57;;;;;;;7.43;3.60;;;;;;;16.53;90.15;96547.44;5046250;28;20045;-73
2023/07/14 02:05:30;;;;;;;8.43;3.90;;;;;;;16.53;90.49;96548.22;5049420;28;20444;-73
2023/07/14 02:08:02;;;;;;;6.88;3.55;;;;;;;16.61;89.57;96551.97;5050212;28;20069;-73
2023/07/14 02:10:29;;;;;;;4.88;3.47;;;;;;;16.65;89.07;96547.34;5049684;28;20094;-73
2023/07/14 02:12:56;;;;;;;3.75;3.05;;;;;;;16.66;88.63;96551.72;5049784;28;20408;-73
2023/07/14 02:15:27;;;;;;;5.68;3.42;;;;;;;16.56;88.68;96550.28;5048896;28;20049;-73
2023/07/14 02:17:56;;;;;;;5.38;3.85;;;;;;;16.60;87.85;96553.09;5049806;28;20056;-73
2023/07/14 02:20:26;;;;;;;5.88;3.17;;;;;;;16.66;87.88;96549.78;5049198;28;20155;-73
2023/07/14 02:22:55;;;;;;;8.32;3.63;;;;;;;16.72;87.94;96552.28;5049709;28;20057;-73
2023/07/14 02:25:25;;;;;;;6.72;3.60;;;;;;;16.32;88.85;96556.69;5048877;28;20107;-73
2023/07/14 02:27:52;;;;;;;7.65;3.60;;;;;;;16.33;88.82;96558.28;5049832;28;20045;-73
2023/07/14 02:30:22;;;;;;;6.15;3.80;;;;;;;16.30;89.48;96553.50;5049182;28;20623;-73
2023/07/14 02:32:54;;;;;;;7.85;4.03;;;;;;;16.27;89.26;96558.88;5049730;28;20048;-73
2023/07/14 02:35:30;;;;;;;5.30;4.00;;;;;;;16.31;89.17;96557.84;5049000;28;20037;-73
2023/07/14 02:38:04;;;;;;;6.53;3.88;;;;;;;16.08;90.58;96557.59;5049737;28;20045;-73
2023/07/14 02:40:35;;;;;;;6.97;3.50;;;;;;;16.15;90.96;96548.75;5049512;28;20496;-73
2023/07/14 02:43:04;;;;;;;4.68;3.67;;;;;;;16.25;89.98;96550.19;5048816;28;20049;-73
2023/07/14 02:45:33;;;;;;;6.88;3.17;;;;;;;16.35;89.23;96556.00;5055911;28;20045;-72
2023/07/14 02:48:02;;;;;;;6.20;3.20;;;;;;;16.47;88.59;96557.09;5049655;28;20045;-73
2023/07/14 02:50:29;;;;;;;6.30;3.47;;;;;;;16.41;88.13;96557.34;5049345;28;20045;-73
2023/07/14 02:52:56;;;;;;;7.75;3.58;;;;;;;16.42;87.95;96556.19;5049739;28;20056;-73
2023/07/14 02:55:22;;;;;;;6.50;3.53;;;;;;;15.95;90.07;96552.47;5048762;28;20044;-73
2023/07/14 02:57:49;;;;;;;5.55;3.60;;;;;;;15.91;90.45;96553.16;5049232;28;20049;-73
2023/07/14 03:00:16;;;;;;;6.68;3.80;;;;;;;15.96;90.60;96559.56;5049194;28;20139;-73
2023/07/14 03:02:42;;;;;;;6.57;3.70;;;;;;;15.99;90.72;96556.94;5049510;28;20053;-73
2023/07/14 03:05:11;;;;;;;8.45;3.80;;;;;;;15.95;90.62;96552.47;5049021;28;20045;-73
2023/07/14 03:07:39;;;;;;;6.03;3.40;;;;;;;15.84;90.88;96552.16;5051552;28;20052;-73
2023/07/14 03:10:08;;;;;;;7.65;3.65;;;;;;;15.66;91.99;96554.38;5052538;28;20416;-73
2023/07/14 03:12:35;;;;;;;6.80;3.38;;;;;;;15.72;92.03;96547.50;5053109;28;20685;-73
2023/07/14 03:15:01;;;;;;;4.82;3.22;;;;;;;15.82;91.76;96549.78;5064139;28;20048;-73
2023/07/14 03:17:28;;;;;;;4.43;3.10;;;;;;;15.94;91.06;96548.13;5057182;28;20450;-73
2023/07/14 03:19:54;;;;;;;5.25;3.38;;;;;;;16.00;90.20;96549.47;5056684;28;20049;-73
2023/07/14 03:22:23;;;;;;;5.20;2.90;;;;;;;16.11;89.97;96545.88;5056029;28;20052;-72
2023/07/14 03:24:50;;;;;;;7.18;3.00;;;;;;;16.21;90.45;96550.09;5053788;28;20143;-73
2023/07/14 03:27:17;;;;;;;4.55;2.78;;;;;;;16.28;89.93;96554.97;5052735;28;20037;-73
2023/07/14 03:29:43;;;;;;;4.90;3.05;;;;;;;16.35;89.68;96555.19;5053135;28;20045;-73
2023/07/14 03:32:13;;;;;;;4.63;2.72;;;;;;;16.38;89.03;96549.78;5052346;28;20037;-73
2023/07/14 03:34:40;;;;;;;6.22;2.80;;;;;;;16.42;89.11;96545.19;5052922;28;20052;-73
2023/07/14 03:37:07;;;;;;;6.93;3.15;;;;;;;16.37;89.04;96545.44;5052292;28;20132;-73
2023/07/14 03:39:33;;;;;;;7.05;3.20;;;;;;;16.36;88.97;96549.34;5052811;28;20052;-73
2023/07/14 03:42:01;;;;;;;8.15;2.65;;;;;;;16.21;88.20;96544.59;5052399;28;20049;-73
2023/07/14 03:44:27;;;;;;;7.03;3.00;;;;;;;16.29;87.81;96545.63;5061002;28;20044;-73
2023/07/14 03:46:54;;;;;;;4.47;2.63;;;;;;;16.31;88.08;96543.31;5072512;28;20400;-73
2023/07/14 03:49:21;;;;;;;6.85;3.15;;;;;;;16.24;88.01;96543.91;5072442;28;20044;-73
2023/07/14 03:51:47;;;;;;;5.90;3.13;;;;;;;16.30;88.32;96552.69;5058486;28;20045;-72
2023/07/14 03:54:14;;;;;;;4.90;2.47;;;;;;;16.23;87.78;96539.53;5051620;28;20048;-73
2023/07/14 03:56:42;;;;;;;6.57;2.70;;;;;;;16.31;87.87;96544.09;5052704;28;20049;-73
2023/07/14 03:59:09;;;;;;;5.15;2.78;;;;;;;16.35;88.36;96556.00;5051605;28;20099;-73
2023/07/14 04:01:36;;;;;;;4.63;2.63;;;;;;;16.37;88.15;96548.19;5052465;28;20056;-73
2023/07/14 04:04:02;;;;;;;3.58;2.40;;;;;;;16.42;88.07;96550.69;5051482;28;20420;-73
2023/07/14 04:06:29;;;;;;;4.90;2.92;;;;;;;16.37;87.83;96542.69;5052508;28;20049;-73
2023/07/14 04:08:59;;;;;;;5.05;2.65;;;;;;;16.44;88.17;96545.66;5052289;28;20060;-73
2023/07/14 04:11:26;;;;;;;3.17;2.50;;;;;;;16.40;87.30;96544.75;5051773;28;20048;-73
2023/07/14 04:13:52;;;;;;;5.60;3.20;;;;;;;16.25;86.51;96542.75;5055188;28;20499;-73
2023/07/14 04:16:23;;;;;;;4.30;2.78;;;;;;;16.30;86.22;96547.22;5071851;28;20243;-73
2023/07/14 04:18:50;;;;;;;4.72;2.92;;;;;;;16.29;86.09;96535.41;5065957;28;20063;-72
2023/07/14 04:21:17;;;;;;;5.82;2.33;;;;;;;16.33;86.10;96535.50;5050968;28;20049;-73
2023/07/14 04:23:43;;;;;;;7.55;2.83;;;;;;;16.39;86.36;96534.09;5051336;28;20045;-73
2023/07/14 04:26:11;;;;;;;5.32;2.72;;;;;;;16.46;86.49;96544.50;5052171;28;20056;-73
2023/07/14 04:28:38;;;;;;;3.90;2.80;;;;;;;16.40;86.74;96539.25;5052666;28;20049;-73
2023/07/14 04:31:05;;;;;;;4.85;3.03;;;;;;;16.23;85.86;96542.28;5051630;28;20056;-74
2023/07/14 04:33:33;;;;;;;4.55;2.40;;;;;;;16.36;85.40;96541.09;5052156;28;20045;-73
2023/07/14 04:36:00;;;;;;;5.15;2.55;;;;;;;16.41;85.43;96540.06;5052005;28;20048;-73
2023/07/14 04:38:27;;;;;;;3.72;2.47;;;;;;;16.49;85.46;96539.06;5051617;28;20040;-73
2023/07/14 04:40:53;;;;;;;4.93;2.50;;;;;;;16.55;85.91;96536.88;5056887;28;20052;-73
2023/07/14 04:43:20;;;;;;;6.75;3.08;;;;;;;16.56;86.07;96538.50;5054784;28;20056;-73
2023/07/14 04:45:47;;;;;;;3.20;2.35;;;;;;;16.63;85.89;96527.66;5073275;28;20049;-73
2023/07/14 04:48:16;;;;;;;7.85;2.60;;;;;;;16.60;86.00;96533.88;5054058;28;20045;-73
2023/07/14 04:50:44;;;;;;;5.78;2.80;;;;;;;16.67;85.43;96523.06;5055050;28;20045;-73
2023/07/14 04:53:11;;;;;;;4.50;2.83;;;;;;;16.75;85.39;96530.38;5053146;28;20052;-73
2023/07/14 04:55:38;;;;;;;5.63;2.78;;;;;;;16.60;85.02;96514.63;5054385;28;20049;-73
2023/07/14 04:58:05;;;;;;;6.95;2.72;;;;;;;16.66;84.92;96521.47;5054935;28;20056;-73
2023/07/14 05:00:32;;;;;;;7.22;2.40;;;;;;;16.68;84.93;96521.91;5058895;28;20041;-73
2023/07/14 05:02:58;;;;;;;4.20;2.50;;;;;;;16.78;85.32;96518.66;5060012;28;20048;-73
2023/07/14 05:05:26;;;;;;;3.78;2.60;;;;;;;16.55;84.83;96526.69;5058739;28;20048;-73
2023/07/14 05:07:55;;;;;;;5.25;2.55;;;;;;;16.75;84.19;96527.63;5060890;28;20063;-73
2023/07/14 05:10:23;;;;;;;3.95;2.58;;;;;;;16.86;84.21;96522.38;5059687;28;20052;-73
2023/07/14 05:12:51;;;;;;;4.90;2.75;;;;;;;16.97;84.81;96517.19;5057932;28;20044;-73
2023/07/14 05:15:18;;;;;;;3.60;2.30;;;;;;;17.04;84.96;96514.59;5065936;28;20083;-72
2023/07/14 05:17:45;;;;;;;4.78;2.70;;;;;;;17.08;85.10;96508.03;5051113;28;20056;-73
2023/07/14 05:20:14;;;;;;;5.07;2.28;;;;;;;17.16;84.12;96511.75;5050557;28;20045;-73
2023/07/14 05:22:42;;;;;;;4.38;2.13;;;;;;;17.26;83.23;96505.69;5050407;28;20139;-73
2023/07/14 05:25:10;;;;;;;4.13;2.25;;;;;;;17.35;83.67;96514.56;5050682;28;20045;-73
2023/07/14 05:27:38;;;;;;;4.28;2.00;;;;;;;17.42;84.44;96511.16;5051046;28;20052;-73
2023/07/14 05:30:05;;;;;;;5.53;2.35;;;;;;;17.53;83.94;96514.16;5051100;28;20618;-73
2023/07/14 05:32:32;;;;;;;4.82;2.45;;;;;;;17.57;83.55;96510.34;5050485;28;20052;-73
2023/07/14 05:34:59;;;;;;;3.30;2.03;;;;;;;17.66;83.07;96504.63;5050623;28;20045;-73
2023/07/14 05:37:26;;;;;;;4.60;2.70;;;;;;;17.68;82.51;96505.84;5051800;28;20396;-73
2023/07/14 05:39:52;;;;;;;3.47;2.08;;;;;;;17.78;81.82;96504.53;5053816;28;20420;-73
2023/07/14 05:42:20;;;;;;;3.65;2.30;;;;;;;17.85;82.37;96501.13;5052778;28;20052;-73
2023/07/14 05:44:47;;;;;;;4.38;2.78;;;;;;;17.84;81.10;96510.53;5065827;28;20049;-73
2023/07/14 05:47:14;;;;;;;3.78;2.25;;;;;;;17.73;78.64;96502.06;5073688;28;20531;-73
2023/07/14 05:49:41;;;;;;;6.28;2.10;;;;;;;17.79;78.88;96502.56;5070645;28;20699;-73
2023/07/14 05:52:09;;;;;;;3.50;2.15;;;;;;;17.90;78.60;96501.63;5056547;28;20574;-73
2023/07/14 05:54:36;;;;;;;5.03;2.10;;;;;;;18.04;79.05;96492.06;5049912;28;20428;-73
2023/07/14 05:57:02;;;;;;;3.38;2.10;;;;;;;18.10;79.12;96498.88;5049450;28;20091;-73
2023/07/14 05:59:30;;;;;;;4.90;2.80;;;;;;;17.92;78.44;96499.31;5050371;28;20052;-73
2023/07/14 06:01:57;;;;;;;3.92;2.70;;;;;;;17.86;77.34;96495.28;5050421;28;20056;-74
2023/07/14 06:04:23;;;;;;;4.80;2.35;;;;;;;17.82;80.54;96491.63;5049225;28;20041;-74
2023/07/14 06:06:50;;;;;;;4.50;2.05;;;;;;;18.02;80.03;96488.91;5050477;28;20127;-74
2023/07/14 06:09:16;;;;;;;3.53;2.33;;;;;;;17.91;77.04;96486.72;5049615;28;20041;-74
2023/07/14 06:11:44;;;;;;;2.97;2.10;;;;;;;18.05;76.86;96485.41;5050077;28;20072;-74
2023/07/14 06:14:11;;;;;;;2.50;1.90;;;;;;;18.20;77.51;96488.06;5055589;28;20055;-74
2023/07/14 06:16:39;;;;;;;4.72;2.30;;;;;;;18.21;78.96;96491.63;5061900;28;20068;-74
2023/07/14 06:19:07;;;;;;;7.10;2.40;;;;;;;18.20;77.94;96492.78;5049132;28;20524;-74
2023/07/14 06:21:33;;;;;;;6.00;2.13;;;;;;;18.36;78.80;96490.72;5050167;28;20080;-74
2023/07/14 06:24:00;;;;;;;4.07;2.60;;;;;;;18.33;77.99;96490.69;5049928;28;20049;-74
2023/07/14 06:26:28;;;;;;;6.07;2.70;;;;;;;18.30;79.69;96494.94;5049721;28;20076;-74
2023/07/14 06:28:54;;;;;;;6.10;2.50;;;;;;;18.18;79.48;96495.13;5050056;28;20068;-74
2023/07/14 06:31:21;;;;;;;4.93;2.70;;;;;;;18.33;80.52;96491.47;5048824;28;20049;-74
2023/07/14 06:33:49;;;;;;;4.45;2.33;;;;;;;18.41;79.91;96495.16;5049674;28;20041;-74
2023/07/14 06:36:16;;;;;;;4.93;2.58;;;;;;;18.46;78.22;96490.13;5049042;28;20056;-74
2023/07/14 06:38:42;;;;;;;4.13;2.40;;;;;;;18.59;77.31;96492.75;5051188;28;20698;-73
2023/07/14 06:41:09;;;;;;;3.20;2.15;;;;;;;18.78;77.04;96492.69;5057617;28;20656;-74
2023/07/14 06:43:36;;;;;;;3.17;2.20;;;;;;;18.92;77.72;96479.16;5062824;28;20063;-73
2023/07/14 06:46:03;;;;;;;7.78;2.67;;;;;;;18.77;76.02;96482.84;5070660;28;20040;-75
2023/07/14 06:48:30;;;;;;;4.75;2.50;;;;;;;18.57;75.21;96484.03;5059693;28;20053;-74
2023/07/14 06:50:58;;;;;;;4.93;2.53;;;;;;;18.77;75.30;96482.84;5052868;28;20045;-74
2023/07/14 06:53:24;;;;;;;4.72;2.45;;;;;;;18.77;73.67;96477.31;5052905;28;20048;-74
2023/07/14 06:55:51;;;;;;;4.22;2.30;;;;;;;18.96;73.51;96466.22;5051874;28;20076;-75
2023/07/14 06:58:18;;;;;;;4.25;2.35;;;;;;;19.11;72.97;96469.22;5052322;28;20516;-74
2023/07/14 07:00:44;;;;;;;2.92;2.10;;;;;;;19.25;72.54;96469.41;5053406;28;20499;-75
2023/07/14 07:03:11;;;;;;;3.42;2.22;;;;;;;19.39;74.23;96474.34;5052464;28;20496;-75
2023/07/14 07:05:39;;;;;;;6.50;2.30;;;;;;;19.43;72.33;96466.94;5053261;28;20068;-74
2023/07/14 07:08:09;;;;;;;4.47;1.90;;;;;;;19.50;69.35;96464.25;5053105;28;20049;-76
2023/07/14 07:10:36;;;;;;;5.32;1.85;;;;;;;19.72;69.09;96462.59;5053444;28;20052;-76
2023/07/14 07:13:03;;;;;;;5.15;2.30;;;;;;;19.78;68.48;96464.69;5052809;28;20049;-77
2023/07/14 07:15:29;;;;;;;3.35;1.88;;;;;;;19.81;66.22;96461.16;5060016;28;20049;-76
2023/07/14 07:17:56;;;;;;;3.83;2.35;;;;;;;19.98;67.37;96465.31;5053591;28;20056;-76
2023/07/14 07:20:22;;;;;;;5.35;2.00;;;;;;;20.08;70.19;96467.41;5070395;28;20048;-75
2023/07/14 07:22:49;;;;;;;4.30;2.38;;;;;;;20.12;69.65;96459.16;5067758;28;20408;-76
2023/07/14 07:25:17;;;;;;;3.45;2.17;;;;;;;20.31;70.13;96467.28;5052426;28;20041;-74
2023/07/14 07:27:44;;;;;;;6.22;2.78;;;;;;;20.38;67.85;96466.56;5052875;28;20053;-75
2023/07/14 07:30:11;;;;;;;4.43;2.40;;;;;;;20.28;68.17;96458.94;5052292;28;20048;-74
2023/07/14 07:32:40;;;;;;;4.90;2.10;;;;;;;20.48;69.87;96457.63;5052263;28;20047;-75
2023/07/14 07:35:07;;;;;;;6.25;2.95;;;;;;;20.41;67.73;96460.28;5052057;28;20064;-75
2023/07/14 07:37:33;;;;;;;5.50;2.53;;;;;;;20.51;69.72;96454.06;5052436;28;20052;-73
2023/07/14 07:40:02;;;;;;;3.97;2.00;;;;;;;20.67;67.47;96453.03;5052313;28;20048;-73
2023/07/14 07:42:30;;;;;;;4.43;2.08;;;;;;;20.79;67.09;96450.00;5052636;28;20051;-74
2023/07/14 07:44:56;;;;;;;4.70;2.65;;;;;;;20.83;63.71;96448.06;5064044;28;20045;-74
2023/07/14 07:47:23;;;;;;;6.15;2.50;;;;;;;20.94;65.97;96450.91;5051586;28;20060;-73
2023/07/14 07:49:49;;;;;;;3.50;2.33;;;;;;;21.05;64.95;96444.28;5052031;28;20068;-73
2023/07/14 07:52:16;;;;;;;4.07;2.42;;;;;;;21.04;64.48;96434.41;5051863;28;20087;-73
2023/07/14 07:54:42;;;;;;;4.53;3.22;;;;;;;21.16;65.11;96432.50;5052214;28;20037;-73
2023/07/14 07:57:10;;;;;;;2.50;1.90;;;;;;;21.39;67.58;96435.81;5051649;28;20044;-73
2023/07/14 07:59:38;;;;;;;4.05;2.05;;;;;;;21.50;64.78;96439.44;5052012;28;20404;-73
2023/07/14 08:02:07;;;;;;;5.20;2.67;;;;;;;21.60;63.49;96430.41;5055641;28;20051;-74
2023/07/14 08:04:34;;;;;;;4.60;2.53;;;;;;;21.78;63.39;96429.72;5054522;28;20071;-74
2023/07/14 08:07:00;;;;;;;4.63;2.50;;;;;;;21.61;63.18;96433.97;5055352;28;20052;-73
2023/07/14 08:09:27;;;;;;;3.45;2.17;;;;;;;21.76;63.75;96430.09;5051610;28;20499;-74
2023/07/14 08:11:56;;;;;;;4.20;2.60;;;;;;;21.85;63.42;96426.97;5050929;28;20541;-73
2023/07/14 08:14:22;;;;;;;4.13;2.00;;;;;;;22.17;65.04;96420.78;5052409;28;20080;-74
2023/07/14 08:16:50;;;;;;;4.57;2.42;;;;;;;22.36;62.03;96417.66;5051410;28;20048;-73
2023/07/14 08:19:17;;;;;;;3.30;2.13;;;;;;;22.57;61.87;96428.00;5051851;28;20060;-74
2023/07/14 08:21:44;;;;;;;5.80;2.33;;;;;;;22.62;61.24;96428.41;5051954;28;20079;-73
2023/07/14 08:24:11;;;;;;;3.72;2.30;;;;;;;22.82;60.06;96416.91;5050730;28;20064;-73
2023/07/14 08:26:38;;;;;;;3.10;2.25;;;;;;;22.56;57.42;96410.56;5032323;28;20045;-72
2023/07/14 08:29:05;;;;;;;6.03;2.63;;;;;;;22.45;58.65;96415.31;5031468;28;20056;-73
2023/07/14 08:31:32;;;;;;;2.47;2.00;;;;;;;22.53;59.36;96405.78;5031644;28;20504;-73
2023/07/14 08:34:00;;;;;;;7.20;2.50;;;;;;;22.77;59.65;96404.22;5031845;28;20489;-73
2023/07/14 08:36:27;;;;;;;3.03;1.83;;;;;;;23.10;59.47;96399.47;5061508;28;20090;-73
2023/07/14 08:38:54;;;;;;;3.60;2.20;;;;;;;23.30;58.16;96402.63;5071655;28;20082;-73
2023/07/14 08:41:28;;;;;;;5.63;2.78;;;;;;;23.23;56.30;96408.16;5071411;28;20139;-73
2023/07/14 08:44:14;;;;;;;4.45;2.38;;;;;;;23.51;56.53;96402.56;5071297;28;20056;-73
2023/07/14 08:46:48;;;;;;;4.72;2.13;;;;;;;23.73;56.00;96396.97;5071040;28;20063;-74
2023/07/14 08:49:22;;;;;;;4.82;2.38;;;;;;;23.81;54.14;96399.31;5071440;28;20055;-74
2023/07/14 08:51:54;;;;;;;5.57;2.13;;;;;;;23.90;53.51;96390.53;5071798;28;20040;-73
2023/07/14 08:54:24;;;;;;;5.87;2.40;;;;;;;23.82;54.50;96394.56;5070779;28;20049;-73
2023/07/14 08:56:51;;;;;;;4.85;2.20;;;;;;;23.76;55.22;96385.06;5071588;28;20064;-74
2023/07/14 08:59:28;;;;;;;4.25;2.35;;;;;;;23.90;55.02;96396.09;5071226;28;20051;-73
2023/07/14 09:01:59;;;;;;;4.15;2.20;;;;;;;23.98;55.73;96388.53;5072282;28;20048;-74
2023/07/14 09:04:33;;;;;;;6.18;2.00;;;;;;;24.04;53.54;96379.34;5071562;28;20407;-73
2023/07/14 09:06:59;;;;;;;5.13;2.42;;;;;;;24.11;55.01;96390.44;5072335;28;20514;-73
2023/07/14 09:09:32;;;;;;;3.40;2.00;;;;;;;24.25;52.83;96388.78;5072859;28;20049;-73
2023/07/14 09:12:10;;;;;;;2.92;2.05;;;;;;;24.37;53.56;96385.53;5075893;28;20094;-73
2023/07/14 09:14:47;;;;;;;9.50;2.00;;;;;;;24.20;54.44;96381.66;5076186;28;20040;-73
2023/07/14 09:17:27;;;;;;;2.65;1.90;;;;;;;24.06;53.44;96384.50;5077920;28;20388;-76
2023/07/14 09:20:19;;;;;;;6.45;2.05;;;;;;;23.94;53.25;96371.84;5076866;28;20051;-74
2023/07/14 09:22:51;;;;;;;4.97;2.20;;;;;;;23.98;52.43;96380.19;5071567;28;20048;-75
2023/07/14 09:25:24;;;;;;;2.85;2.00;;;;;;;24.03;52.94;96388.09;5070329;28;20037;-74
2023/07/14 09:27:52;;;;;;;3.53;1.80;;;;;;;24.29;54.68;96379.22;5071223;28;20048;-74
2023/07/14 09:30:21;;;;;;;4.35;1.77;;;;;;;24.28;53.55;96376.84;5070296;28;20091;-75
2023/07/14 09:32:51;;;;;;;4.20;1.88;;;;;;;24.40;53.82;96379.16;5068800;28;20113;-75
2023/07/14 09:35:21;;;;;;;4.65;1.98;;;;;;;24.21;50.69;96378.44;5070081;28;20085;-75
2023/07/14 09:37:52;;;;;;;6.90;2.13;;;;;;;24.34;50.39;96369.66;5070265;28;20041;-74
2023/07/14 09:40:23;;;;;;;6.05;1.63;;;;;;;24.35;51.73;96371.22;5070436;28;20052;-75
2023/07/14 09:42:51;;;;;;;4.82;2.00;;;;;;;24.33;52.86;96362.50;5071194;28;20044;-75
2023/07/14 09:45:21;;;;;;;2.95;1.77;;;;;;;24.37;50.71;96368.84;5069423;28;20123;-75
2023/07/14 09:47:53;;;;;;;2.78;1.90;;;;;;;24.33;49.45;96368.06;5074655;28;20537;-76
2023/07/14 09:50:21;;;;;;;2.42;1.70;;;;;;;24.44;52.24;96368.81;5071743;28;20102;-75
2023/07/14 09:52:55;;;;;;;3.08;1.73;;;;;;;24.44;49.03;96363.25;5071046;28;20487;-75
2023/07/14 09:55:23;;;;;;;5.07;1.67;;;;;;;24.56;51.25;96359.97;5073140;28;20113;-75
2023/07/14 09:57:53;;;;;;;4.90;1.52;;;;;;;24.67;49.15;96354.31;5076025;28;20044;-75
2023/07/14 10:00:24;;;;;;;2.17;1.50;;;;;;;24.87;49.92;96346.19;5074504;28;20056;-75
2023/07/14 10:02:58;;;;;;;6.63;2.13;;;;;;;24.89;50.87;96354.91;5070871;28;20503;-75
2023/07/14 10:05:36;;;;;;;3.08;1.85;;;;;;;24.86;48.28;96339.84;5070339;28;20043;-75
2023/07/14 10:08:05;;;;;;;5.55;1.70;;;;;;;25.00;50.25;96341.66;5070273;28;20058;-75
2023/07/14 10:10:35;;;;;;;2.55;1.73;;;;;;;25.12;50.08;96338.41;5070908;28;20396;-76
2023/07/14 10:13:16;;;;;;;4.68;2.67;;;;;;;24.83;48.82;96337.06;5071779;28;20060;-76
2023/07/14 10:15:53;;;;;;;7.68;2.20;;;;;;;24.96;50.18;96344.50;5070077;28;20618;-76
2023/07/14 10:18:20;;;;;;;5.65;1.88;;;;;;;24.97;49.42;96331.38;5069604;28;20119;-75
2023/07/14 10:21:00;;;;;;;5.10;2.28;;;;;;;25.08;47.53;96334.88;5075578;28;20059;-74
2023/07/14 10:23:27;;;;;;;4.70;1.88;;;;;;;25.20;50.85;96330.75;5069524;28;20044;-76
2023/07/14 10:25:54;;;;;;;4.35;2.20;;;;;;;25.25;48.72;96317.16;5071513;28;20471;-75
2023/07/14 10:28:27;;;;;;;3.22;1.90;;;;;;;25.45;48.83;96322.13;5070901;28;20072;-75
2023/07/14 10:30:58;;;;;;;;;;;;;;;25.46;47.02;96315.34;5070511;28;20048;-75
2023/07/14 10:33:27;;;;;;;6.30;2.15;;;;;;;25.53;48.71;96323.63;5069602;28;19920;-76
2023/07/14 10:36:02;;;;;;;6.18;2.20;;;;;;;25.45;47.28;96302.63;5072714;28;20418;-76
2023/07/14 10:38:33;;;;;;;3.63;1.75;;;;;;;25.51;48.55;96300.94;5070740;28;20128;-74
2023/07/14 10:41:02;;;;;;;4.15;1.83;;;;;;;25.63;48.37;96292.03;5072623;28;20072;-75
2023/07/14 10:43:33;;;;;;;5.07;2.15;;;;;;;25.41;46.54;96287.91;5053829;28;20045;-77
2023/07/14 10:46:04;;;;;;;6.65;1.90;;;;;;;25.14;47.36;96293.41;5065020;28;20064;-75
2023/07/14 10:48:35;;;;;;;4.68;2.40;;;;;;;24.97;48.69;96284.03;5051029;28;20044;-74
2023/07/14 10:51:10;;;;;;;3.58;1.70;;;;;;;25.02;47.44;96280.78;5049340;28;20539;-74
2023/07/14 10:53:42;;;;;;;6.45;2.13;;;;;;;24.99;47.25;96287.16;5049750;28;20385;-73
2023/07/14 10:56:20;;;;;;;6.28;2.15;;;;;;;24.99;48.54;96287.16;5049220;28;20052;-73
2023/07/14 10:58:53;;;;;;;3.35;1.60;;;;;;;24.99;47.68;96289.94;5049098;28;20045;-73
2023/07/14 11:01:29;;;;;;;2.65;1.80;;;;;;;24.92;46.27;96276.91;5049238;28;20048;-73
2023/07/14 11:04:00;;;;;;;3.05;1.65;;;;;;;24.63;45.37;96275.59;5049348;28;20056;-73
2023/07/14 11:06:32;;;;;;;3.00;1.70;;;;;;;25.01;47.94;96267.28;5052068;28;20072;-73
2023/07/14 11:08:59;;;;;;;6.17;2.27;;;;;;;25.13;49.71;96263.97;5053502;28;20049;-74
2023/07/14 11:11:33;;;;;;;5.68;2.00;;;;;;;25.32;47.37;96262.53;5052916;28;20091;-75
2023/07/14 11:14:13;;;;;;;3.63;1.60;;;;;;;25.38;47.41;96255.31;5053259;28;20052;-74
2023/07/14 11:16:47;;;;;;;3.72;1.88;;;;;;;25.52;46.40;96255.91;5053850;28;20041;-75
2023/07/14 11:19:20;;;;;;;3.70;1.70;;;;;;;25.72;44.77;96253.25;5054332;28;20504;-75
2023/07/14 11:21:49;;;;;;;;;;;;;;;25.86;45.22;96248.72;5054698;28;20053;-74
2023/07/14 11:24:21;;;;;;;4.55;1.55;;;;;;;26.10;46.07;96239.19;5052317;28;19928;-75
2023/07/14 11:27:05;;;;;;;4.00;1.65;;;;;;;26.05;48.05;96238.88;5052301;28;20056;-74
2023/07/14 11:29:39;;;;;;;6.28;1.67;;;;;;;26.06;44.09;96230.09;5053258;28;20051;-74
2023/07/14 11:32:17;;;;;;;3.05;1.80;;;;;;;26.05;45.83;96228.53;5056011;28;20041;-73
2023/07/14 11:34:53;;;;;;;3.85;1.60;;;;;;;25.95;44.77;96229.47;5056982;28;20053;-75
2023/07/14 11:37:36;;;;;;;2.83;1.40;;;;;;;26.02;47.56;96229.34;5052917;28;20045;-74
2023/07/14 11:40:12;;;;;;;3.47;1.70;;;;;;;25.96;44.24;96226.25;5052596;28;20455;-73
2023/07/14 11:42:39;;;;;;;4.82;1.90;;;;;;;26.01;45.80;96233.34;5052176;28;20052;-73